createdAt,value
2019-05-19T00:02:06.496Z,123.33
2019-05-19T00:04:35.061Z,140.07
2019-05-19T00:07:05.217Z,133.12
2019-05-19T00:09:33.683Z,124.00
2019-05-19T00:12:03.095Z,141.05
2019-05-19T00:14:33.191Z,153.97
2019-05-19T00:17:01.712Z,132.07
2019-05-19T00:19:31.777Z,138.07
2019-05-19T00:22:00.892Z,141.43
2019-05-19T00:24:29.438Z,135.95
2019-05-19T00:27:01.189Z,134.65
2019-05-19T00:29:29.753Z,139.12
2019-05-19T00:31:58.367Z,134.63
2019-05-19T00:34:28.147Z,136.40
2019-05-19T00:36:58.719Z,147.72
2019-05-19T00:39:28.914Z,140.90
2019-05-19T00:42:01.393Z,154.25
2019-05-19T00:44:31.489Z,145.90
2019-05-19T00:47:02.903Z,155.35
2019-05-19T00:49:40.905Z,155.07
2019-05-19T00:52:01.666Z,176.70
2019-05-19T00:54:31.719Z,180.40
2019-05-19T00:57:05.358Z,168.97
2019-05-19T00:59:35.910Z,189.15
2019-05-19T01:02:07.608Z,174.85
2019-05-19T01:04:38.088Z,191.37
2019-05-19T01:07:08.188Z,169.70
2019-05-19T01:09:37.463Z,173.25
2019-05-19T01:12:06.125Z,163.95
2019-05-19T01:14:34.678Z,158.78
2019-05-19T01:17:03.179Z,163.03
2019-05-19T01:19:32.691Z,169.37
2019-05-19T01:22:04.697Z,184.05
2019-05-19T01:24:33.201Z,159.22
2019-05-19T01:27:05.217Z,169.50
2019-05-19T01:29:35.010Z,188.10
2019-05-19T01:32:04.392Z,181.75
2019-05-19T01:34:32.895Z,175.27
2019-05-19T01:37:01.388Z,164.20
2019-05-19T01:39:30.031Z,187.45
2019-05-19T01:41:58.782Z,171.07
2019-05-19T01:44:28.816Z,174.57
2019-05-19T01:47:00.255Z,165.88
2019-05-19T01:49:30.399Z,169.82
2019-05-19T01:51:58.869Z,159.65
2019-05-19T01:54:27.353Z,157.00
2019-05-19T01:57:01.869Z,155.80
2019-05-19T01:59:30.395Z,153.50
2019-05-19T02:02:00.661Z,154.68
2019-05-19T02:04:29.169Z,164.00
2019-05-19T02:06:57.724Z,146.80
2019-05-19T02:09:26.272Z,165.18
2019-05-19T02:11:54.836Z,169.28
2019-05-19T02:14:23.375Z,158.30
2019-05-19T02:16:51.951Z,147.70
2019-05-19T02:19:20.566Z,146.37
2019-05-19T02:21:49.128Z,143.40
2019-05-19T02:24:17.677Z,144.65
2019-05-19T02:26:47.723Z,142.72
2019-05-19T02:29:16.220Z,136.43
2019-05-19T02:31:47.677Z,127.97
2019-05-19T02:34:16.162Z,132.37
2019-05-19T02:36:45.811Z,140.45
2019-05-19T02:39:17.050Z,132.50
2019-05-19T02:41:49.435Z,138.95
2019-05-19T02:44:20.249Z,132.67
2019-05-19T02:46:50.760Z,139.90
2019-05-19T02:49:21.455Z,141.80
2019-05-19T02:51:52.317Z,139.37
2019-05-19T02:54:22.924Z,139.75
2019-05-19T02:56:53.115Z,128.50
2019-05-19T02:59:22.843Z,142.82
2019-05-19T03:02:02.319Z,139.55
2019-05-19T03:04:30.936Z,139.70
2019-05-19T03:07:02.157Z,135.20
2019-05-19T03:09:30.681Z,135.28
2019-05-19T03:12:01.317Z,134.50
2019-05-19T03:14:29.843Z,147.75
2019-05-19T03:16:59.927Z,138.85
2019-05-19T03:19:29.020Z,152.22
2019-05-19T03:21:57.496Z,142.82
2019-05-19T03:24:26.650Z,148.05
2019-05-19T03:26:55.147Z,147.32
2019-05-19T03:29:31.189Z,142.93
2019-05-19T03:32:11.777Z,144.32
2019-05-19T03:34:37.734Z,145.07
2019-05-19T03:37:06.227Z,158.85
2019-05-19T03:39:34.839Z,159.00
2019-05-19T03:42:03.331Z,143.30
2019-05-19T03:44:32.378Z,150.38
2019-05-19T03:47:00.906Z,150.07
2019-05-19T03:49:29.389Z,166.32
2019-05-19T03:51:57.854Z,157.03
2019-05-19T03:54:26.449Z,154.03
2019-05-19T03:56:54.986Z,157.95
2019-05-19T03:59:23.472Z,178.55
2019-05-19T04:01:54.777Z,162.50
2019-05-19T04:04:25.750Z,171.30
2019-05-19T04:06:57.408Z,179.05
2019-05-19T04:09:28.186Z,167.43
2019-05-19T04:11:56.728Z,180.18
2019-05-19T04:14:26.858Z,173.35
2019-05-19T04:16:56.564Z,179.80
2019-05-19T04:19:25.120Z,184.07
2019-05-19T04:21:53.665Z,174.45
2019-05-19T04:24:22.189Z,182.80
2019-05-19T04:26:50.969Z,176.10
2019-05-19T04:29:19.770Z,182.75
2019-05-19T04:31:48.278Z,188.52
2019-05-19T04:34:18.309Z,179.07
2019-05-19T04:36:48.617Z,188.30
2019-05-19T04:39:17.173Z,175.80
2019-05-19T04:41:45.874Z,174.60
2019-05-19T04:44:17.132Z,169.00
2019-05-19T04:46:48.489Z,177.93
2019-05-19T04:49:17.057Z,161.23
2019-05-19T04:51:45.692Z,159.67
2019-05-19T04:54:14.228Z,156.02
2019-05-19T04:56:44.064Z,156.10
2019-05-19T04:59:16.039Z,155.37
2019-05-19T05:01:44.460Z,148.00
2019-05-19T05:04:12.963Z,142.80
2019-05-19T05:06:41.499Z,149.55
2019-05-19T05:09:10.065Z,141.03
2019-05-19T05:11:41.208Z,130.70
2019-05-19T05:14:09.686Z,127.30
2019-05-19T05:16:38.442Z,124.75
2019-05-19T05:19:10.110Z,128.05
2019-05-19T05:21:38.620Z,121.67
2019-05-19T05:24:07.178Z,119.85
2019-05-19T05:26:35.670Z,122.10
2019-05-19T05:29:04.215Z,110.92
2019-05-19T05:31:32.821Z,110.68
2019-05-19T05:34:02.981Z,109.20
2019-05-19T05:36:32.103Z,108.80
2019-05-19T05:39:00.685Z,101.50
2019-05-19T05:41:29.147Z,101.25
2019-05-19T05:43:57.676Z,106.40
2019-05-19T05:46:28.986Z,107.50
2019-05-19T05:49:09.298Z,99.37
2019-05-19T05:51:37.814Z,107.70
2019-05-19T05:54:06.412Z,101.97
2019-05-19T05:56:35.202Z,100.12
2019-05-19T05:59:05.890Z,96.42
2019-05-19T06:01:37.207Z,95.80
2019-05-19T06:04:05.753Z,102.62
2019-05-19T06:06:34.258Z,97.17
2019-05-19T06:09:04.394Z,98.78
2019-05-19T06:11:32.870Z,91.02
2019-05-19T06:14:03.035Z,94.72
2019-05-19T06:16:34.819Z,94.52
2019-05-19T06:19:03.897Z,96.78
2019-05-19T06:21:32.421Z,97.40
2019-05-19T06:24:01.091Z,91.37
2019-05-19T06:26:32.621Z,92.35
2019-05-19T06:29:04.311Z,93.50
2019-05-19T06:31:34.411Z,91.90
2019-05-19T06:34:02.993Z,91.80
2019-05-19T06:36:32.954Z,92.55
2019-05-19T06:39:01.529Z,91.30
2019-05-19T06:41:34.124Z,92.95
2019-05-19T06:44:06.185Z,91.70
2019-05-19T06:46:38.680Z,88.17
2019-05-19T06:49:12.871Z,87.70
2019-05-19T06:51:40.559Z,81.72
2019-05-19T06:54:09.090Z,85.17
2019-05-19T06:56:40.349Z,86.10
2019-05-19T06:59:08.912Z,83.40
2019-05-19T07:01:37.424Z,82.35
2019-05-19T07:04:05.890Z,87.47
2019-05-19T07:06:37.647Z,81.17
2019-05-19T07:09:09.095Z,84.52
2019-05-19T07:11:38.087Z,84.55
2019-05-19T07:14:09.043Z,84.95
2019-05-19T07:16:39.589Z,83.58
2019-05-19T07:19:08.065Z,86.10
2019-05-19T07:21:36.564Z,83.07
2019-05-19T07:24:06.249Z,83.37
2019-05-19T07:26:40.327Z,85.20
2019-05-19T07:29:08.883Z,79.80
2019-05-19T07:31:41.830Z,80.03
2019-05-19T07:34:11.412Z,91.53
2019-05-19T07:36:41.532Z,85.22
2019-05-19T07:39:10.219Z,81.45
2019-05-19T07:41:41.652Z,88.82
2019-05-19T07:44:10.123Z,81.85
2019-05-19T07:46:38.673Z,80.38
2019-05-19T07:49:08.403Z,82.72
2019-05-19T07:51:38.450Z,81.78
2019-05-19T07:54:08.735Z,81.02
2019-05-19T07:56:37.328Z,80.22
2019-05-19T07:59:08.119Z,80.67
2019-05-19T08:01:37.888Z,76.20
2019-05-19T08:04:07.694Z,80.23
2019-05-19T08:06:36.945Z,74.67
2019-05-19T08:09:08.476Z,81.65
2019-05-19T08:11:37.644Z,78.12
2019-05-19T08:14:07.650Z,77.00
2019-05-19T08:16:36.299Z,76.22
2019-05-19T08:19:05.776Z,79.60
2019-05-19T08:21:34.322Z,76.62
2019-05-19T08:24:02.927Z,80.72
2019-05-19T08:26:31.557Z,75.90
2019-05-19T08:29:00.762Z,70.55
2019-05-19T08:31:29.292Z,73.15
2019-05-19T08:33:58.084Z,75.30
2019-05-19T08:36:28.199Z,72.50
2019-05-19T08:38:56.735Z,68.52
2019-05-19T08:41:26.163Z,70.40
2019-05-19T08:43:54.749Z,69.77
2019-05-19T08:46:24.333Z,67.20
2019-05-19T08:48:52.851Z,63.15
2019-05-19T08:51:21.433Z,71.10
2019-05-19T08:53:49.899Z,70.17
2019-05-19T08:56:18.614Z,67.43
2019-05-19T08:58:47.178Z,67.95
2019-05-19T09:01:15.711Z,69.45
2019-05-19T09:03:44.173Z,67.53
2019-05-19T09:06:12.707Z,69.87
2019-05-19T09:08:41.294Z,67.58
2019-05-19T09:11:09.786Z,70.15
2019-05-19T09:13:38.560Z,66.55
2019-05-19T09:16:07.156Z,66.95
2019-05-19T09:18:37.544Z,70.10
2019-05-19T09:21:06.079Z,68.92
2019-05-19T09:23:34.616Z,64.10
2019-05-19T09:26:03.110Z,67.32
2019-05-19T09:28:31.733Z,67.70
2019-05-19T09:31:03.323Z,66.57
2019-05-19T09:33:33.270Z,64.72
2019-05-19T09:36:01.860Z,62.65
2019-05-19T09:38:30.465Z,69.05
2019-05-19T09:41:00.661Z,62.27
2019-05-19T09:43:30.496Z,61.20
2019-05-19T09:46:01.693Z,58.70
2019-05-19T09:48:31.609Z,62.50
2019-05-19T09:51:00.262Z,59.53
2019-05-19T09:53:28.798Z,66.15
2019-05-19T09:55:57.486Z,63.92
2019-05-19T09:58:26.121Z,62.45
2019-05-19T10:00:54.825Z,63.45
2019-05-19T10:03:26.256Z,64.40
2019-05-19T10:05:54.892Z,60.78
2019-05-19T10:08:29.266Z,60.58
2019-05-19T10:11:26.579Z,58.52
2019-05-19T10:13:56.529Z,58.85
2019-05-19T10:16:25.003Z,61.90
2019-05-19T10:18:53.558Z,67.05
2019-05-19T10:21:24.246Z,57.75
2019-05-19T10:23:54.625Z,61.13
2019-05-19T10:26:24.734Z,56.00
2019-05-19T10:28:53.194Z,59.00
2019-05-19T10:31:21.681Z,59.80
2019-05-19T10:33:50.227Z,56.00
2019-05-19T10:36:18.711Z,59.63
2019-05-19T10:38:51.102Z,59.85
2019-05-19T10:41:20.566Z,55.93
2019-05-19T10:43:50.684Z,52.48
2019-05-19T10:46:20.396Z,54.15
2019-05-19T10:48:50.446Z,55.17
2019-05-19T10:51:19.037Z,53.93
2019-05-19T10:53:49.260Z,58.95
2019-05-19T10:56:19.223Z,58.83
2019-05-19T10:58:49.061Z,60.38
2019-05-19T11:01:17.622Z,58.73
2019-05-19T11:03:51.107Z,57.73
2019-05-19T11:06:22.831Z,56.40
2019-05-19T11:08:52.653Z,57.35
2019-05-19T11:11:23.896Z,57.23
2019-05-19T11:13:52.135Z,56.13
2019-05-19T11:16:23.626Z,59.48
2019-05-19T11:18:52.823Z,52.60
2019-05-19T11:21:21.528Z,52.83
2019-05-19T11:23:51.526Z,53.60
2019-05-19T11:26:21.243Z,50.33
2019-05-19T11:28:50.877Z,51.83
2019-05-19T11:31:19.386Z,56.85
2019-05-19T11:33:51.199Z,54.93
2019-05-19T11:36:21.582Z,51.77
2019-05-19T11:38:52.618Z,55.85
2019-05-19T11:41:21.665Z,51.23
2019-05-19T11:43:50.186Z,52.27
2019-05-19T11:46:21.563Z,51.23
2019-05-19T11:48:51.360Z,53.58
2019-05-19T11:51:19.836Z,55.55
2019-05-19T11:53:48.419Z,63.38
2019-05-19T11:56:20.126Z,53.38
2019-05-19T11:58:48.620Z,58.05
2019-05-19T12:01:17.204Z,53.23
2019-05-19T12:03:47.786Z,53.42
2019-05-19T12:06:16.377Z,54.15
2019-05-19T12:08:44.990Z,52.67
2019-05-19T12:11:13.527Z,57.33
2019-05-19T12:13:42.126Z,50.92
2019-05-19T12:16:11.815Z,51.75
2019-05-19T12:18:41.700Z,52.90
2019-05-19T12:21:10.259Z,52.48
2019-05-19T12:23:41.212Z,56.85
2019-05-19T12:26:22.611Z,53.70
2019-05-19T12:28:40.171Z,56.35
2019-05-19T12:31:11.408Z,54.63
2019-05-19T12:33:51.157Z,50.63
2019-05-19T12:36:10.219Z,51.77
2019-05-19T12:38:40.221Z,52.00
2019-05-19T12:41:08.685Z,52.75
2019-05-19T12:43:38.227Z,56.77
2019-05-19T12:46:16.107Z,58.52
2019-05-19T12:48:40.148Z,52.62
2019-05-19T12:51:10.609Z,52.96
2019-05-19T12:53:41.897Z,52.35
2019-05-19T12:56:10.429Z,50.70
2019-05-19T12:58:39.033Z,55.70
2019-05-19T13:01:07.596Z,52.55
2019-05-19T13:03:36.058Z,54.42
2019-05-19T13:06:06.378Z,52.63
2019-05-19T13:08:36.514Z,53.08
2019-05-19T13:11:11.162Z,53.78
2019-05-19T13:13:39.633Z,51.58
2019-05-19T13:16:13.098Z,51.92
2019-05-19T13:18:41.616Z,53.90
2019-05-19T13:21:10.098Z,52.62
2019-05-19T13:23:41.829Z,51.18
2019-05-19T13:26:14.796Z,48.68
2019-05-19T13:28:43.330Z,49.58
2019-05-19T13:31:11.827Z,49.40
2019-05-19T13:33:40.305Z,46.73
2019-05-19T13:36:08.850Z,48.92
2019-05-19T13:38:37.435Z,49.20
2019-05-19T13:41:07.491Z,48.08
2019-05-19T13:43:35.980Z,47.40
2019-05-19T13:46:04.699Z,46.00
2019-05-19T13:48:33.248Z,48.05
2019-05-19T13:51:03.097Z,44.48
2019-05-19T13:53:31.680Z,47.73
2019-05-19T13:56:00.326Z,47.93
2019-05-19T13:58:30.385Z,48.00
2019-05-19T14:00:59.139Z,44.50
2019-05-19T14:03:28.712Z,45.40
2019-05-19T14:05:57.266Z,49.95
2019-05-19T14:08:25.833Z,45.20
2019-05-19T14:10:54.439Z,50.37
2019-05-19T14:13:22.903Z,49.27
2019-05-19T14:15:55.198Z,46.40
2019-05-19T14:18:23.766Z,44.90
2019-05-19T14:20:55.199Z,49.98
2019-05-19T14:23:23.710Z,45.92
2019-05-19T14:25:52.275Z,49.63
2019-05-19T14:28:20.868Z,47.73
2019-05-19T14:30:49.347Z,50.43
2019-05-19T14:33:17.852Z,46.92
2019-05-19T14:35:48.536Z,48.85
2019-05-19T14:38:19.810Z,48.20
2019-05-19T14:40:48.385Z,53.75
2019-05-19T14:43:20.121Z,53.78
2019-05-19T14:45:48.927Z,52.62
2019-05-19T14:48:17.742Z,55.30
2019-05-19T14:50:49.042Z,54.83
2019-05-19T14:53:19.065Z,49.08
2019-05-19T14:55:48.724Z,52.23
2019-05-19T14:58:20.466Z,50.78
2019-05-19T15:00:50.003Z,52.50
2019-05-19T15:03:19.772Z,50.17
2019-05-19T15:05:49.503Z,50.23
2019-05-19T15:08:18.054Z,49.95
2019-05-19T15:10:46.752Z,53.77
2019-05-19T15:13:16.882Z,50.03
2019-05-19T15:15:47.114Z,49.67
2019-05-19T15:18:19.462Z,46.92
2019-05-19T15:20:51.922Z,49.40
2019-05-19T15:23:22.171Z,43.15
2019-05-19T15:25:52.085Z,41.88
2019-05-19T15:28:20.636Z,46.77
2019-05-19T15:30:49.235Z,43.40
2019-05-19T15:33:17.717Z,47.10
2019-05-19T15:35:48.416Z,46.05
2019-05-19T15:38:18.949Z,47.55
2019-05-19T15:40:52.262Z,56.37
2019-05-19T15:43:20.817Z,51.13
2019-05-19T15:45:49.421Z,54.38
2019-05-19T15:48:17.976Z,54.42
2019-05-19T15:50:48.604Z,52.65
2019-05-19T15:53:17.216Z,57.13
2019-05-19T15:55:45.755Z,55.95
2019-05-19T15:58:16.920Z,52.05
2019-05-19T16:00:44.551Z,49.15
2019-05-19T16:03:13.037Z,55.10
2019-05-19T16:05:44.110Z,57.48
2019-05-19T16:08:13.357Z,54.90
2019-05-19T16:10:42.967Z,54.65
2019-05-19T16:13:11.539Z,56.98
2019-05-19T16:15:41.634Z,56.50
2019-05-19T16:18:10.116Z,52.40
2019-05-19T16:20:38.726Z,59.23
2019-05-19T16:23:09.329Z,60.40
2019-05-19T16:25:37.800Z,54.67
2019-05-19T16:28:07.127Z,58.87
2019-05-19T16:30:35.725Z,56.60
2019-05-19T16:33:04.812Z,58.80
2019-05-19T16:35:33.360Z,61.20
2019-05-19T16:38:01.899Z,65.45
2019-05-19T16:40:34.788Z,61.35
2019-05-19T16:43:03.314Z,66.93
2019-05-19T16:45:31.867Z,64.27
2019-05-19T16:48:00.495Z,68.43
2019-05-19T16:50:29.295Z,62.73
2019-05-19T16:53:03.170Z,67.05
2019-05-19T16:55:36.657Z,64.85
2019-05-19T17:00:34.791Z,64.22
2019-05-19T17:03:03.362Z,66.02
2019-05-19T17:05:32.023Z,58.17
2019-05-19T17:08:00.518Z,63.68
2019-05-19T17:10:29.102Z,59.73
2019-05-19T17:12:57.580Z,62.48
2019-05-19T17:15:26.196Z,55.78
2019-05-19T17:17:54.709Z,52.48
2019-05-19T17:20:23.436Z,40.10
2019-05-19T17:22:51.949Z,40.63
2019-05-19T17:25:20.614Z,42.50
2019-05-19T17:27:49.120Z,46.73
2019-05-19T17:30:19.536Z,45.58
2019-05-19T17:32:50.697Z,46.65
2019-05-19T17:35:19.319Z,50.20
2019-05-19T17:37:49.324Z,45.52
2019-05-19T17:40:18.453Z,50.17
2019-05-19T17:42:47.776Z,48.58
2019-05-19T17:45:18.741Z,51.63
2019-05-19T17:47:47.304Z,44.70
2019-05-19T17:50:17.694Z,46.40
2019-05-19T17:52:47.887Z,46.13
2019-05-19T17:55:18.000Z,44.00
2019-05-19T17:57:47.438Z,43.60
2019-05-19T18:00:19.045Z,45.83
2019-05-19T18:02:49.549Z,41.35
2019-05-19T18:05:18.137Z,42.15
2019-05-19T18:07:46.755Z,43.17
2019-05-19T18:10:16.713Z,45.43
2019-05-19T18:12:45.225Z,39.58
2019-05-19T18:15:14.858Z,40.03
2019-05-19T18:17:43.442Z,37.90
2019-05-19T18:20:23.514Z,36.35
2019-05-19T18:22:42.324Z,38.63
2019-05-19T18:25:16.997Z,39.98
2019-05-19T18:27:48.084Z,39.73
2019-05-19T18:30:16.784Z,39.15
2019-05-19T18:32:48.583Z,39.60
2019-05-19T18:35:17.979Z,46.75
2019-05-19T18:37:47.861Z,38.30
2019-05-19T18:40:16.571Z,42.45
2019-05-19T18:42:45.198Z,42.80
2019-05-19T18:45:14.742Z,41.90
2019-05-19T18:47:44.312Z,42.90
2019-05-19T18:50:14.660Z,42.85
2019-05-19T18:52:47.719Z,44.08
2019-05-19T18:55:16.497Z,36.57
2019-05-19T18:57:48.184Z,41.98
2019-05-19T19:00:21.078Z,42.10
2019-05-19T19:02:51.196Z,43.38
2019-05-19T19:05:19.763Z,43.52
2019-05-19T19:07:51.481Z,40.25
2019-05-19T19:10:20.325Z,42.27
2019-05-19T19:12:48.801Z,41.90
2019-05-19T19:15:19.081Z,40.00
2019-05-19T19:17:47.638Z,47.40
2019-05-19T19:20:18.151Z,40.17
2019-05-19T19:22:49.499Z,43.00
2019-05-19T19:25:20.641Z,43.68
2019-05-19T19:27:49.175Z,44.13
2019-05-19T19:30:20.245Z,44.40
2019-05-19T19:32:50.271Z,44.23
2019-05-19T19:35:20.440Z,47.43
2019-05-19T19:37:54.938Z,46.02
2019-05-19T19:40:31.954Z,50.33
2019-05-19T19:43:00.698Z,43.48
2019-05-19T19:45:29.465Z,48.20
2019-05-19T19:47:58.531Z,45.03
2019-05-19T19:50:27.119Z,44.75
2019-05-19T19:52:55.617Z,49.27
2019-05-19T19:55:43.518Z,44.70
2019-05-19T19:58:12.125Z,47.05
2019-05-19T20:00:44.678Z,49.55
2019-05-19T20:03:13.701Z,45.10
2019-05-19T20:05:47.478Z,46.60
2019-05-19T20:08:18.652Z,47.15
2019-05-19T20:10:47.162Z,41.77
2019-05-19T20:13:17.198Z,49.77
2019-05-19T20:15:47.183Z,47.15
2019-05-19T20:18:17.785Z,50.48
2019-05-19T20:20:46.319Z,47.50
2019-05-19T20:23:16.534Z,43.87
2019-05-19T20:25:45.076Z,48.78
2019-05-19T20:28:13.698Z,49.35
2019-05-19T20:30:42.278Z,47.17
2019-05-19T20:33:10.783Z,47.10
2019-05-19T20:35:39.320Z,48.13
2019-05-19T20:38:07.939Z,50.85
2019-05-19T20:40:38.242Z,45.33
2019-05-19T20:43:06.905Z,48.20
2019-05-19T20:45:36.978Z,49.50
2019-05-19T20:48:05.503Z,46.80
2019-05-19T20:50:34.067Z,43.68
2019-05-19T20:53:02.653Z,47.62
2019-05-19T20:55:31.183Z,48.30
2019-05-19T20:58:01.316Z,44.05
2019-05-19T21:00:29.927Z,52.58
2019-05-19T21:02:59.615Z,50.23
2019-05-19T21:05:29.459Z,53.68
2019-05-19T21:07:57.952Z,50.60
2019-05-19T21:10:26.483Z,52.90
2019-05-19T21:12:57.495Z,48.40
2019-05-19T21:15:27.270Z,50.70
2019-05-19T21:17:56.648Z,55.20
2019-05-19T21:20:28.136Z,52.50
2019-05-19T21:22:59.022Z,53.50
2019-05-19T21:25:27.733Z,46.73
2019-05-19T21:27:57.885Z,44.70
2019-05-19T21:30:26.420Z,47.17
2019-05-19T21:32:59.943Z,45.83
2019-05-19T21:35:30.771Z,45.50
2019-05-19T21:38:04.530Z,44.53
2019-05-19T21:40:33.110Z,49.23
2019-05-19T21:43:01.643Z,47.23
2019-05-19T21:45:30.186Z,44.03
2019-05-19T21:47:58.741Z,44.08
2019-05-19T21:50:27.311Z,41.88
2019-05-19T21:52:55.785Z,42.75
2019-05-19T21:55:24.328Z,40.12
2019-05-19T21:57:54.061Z,38.80
2019-05-19T22:00:24.324Z,40.47
2019-05-19T22:02:54.813Z,37.53
2019-05-19T22:05:23.413Z,39.65
2019-05-19T22:08:00.910Z,37.67
2019-05-19T22:10:29.473Z,39.03
2019-05-19T22:12:59.142Z,39.58
2019-05-19T22:15:27.857Z,41.33
2019-05-19T22:17:59.337Z,42.62
2019-05-19T22:20:33.429Z,37.98
2019-05-19T22:23:02.076Z,44.15
2019-05-19T22:25:30.597Z,39.98
2019-05-19T22:27:59.162Z,39.30
2019-05-19T22:30:27.732Z,39.63
2019-05-19T22:32:56.292Z,40.43
2019-05-19T22:35:25.030Z,42.20
2019-05-19T22:37:54.399Z,39.75
2019-05-19T22:40:22.967Z,44.15
2019-05-19T22:42:51.463Z,39.50
2019-05-19T22:45:20.099Z,41.53
2019-05-19T22:47:49.918Z,39.08
2019-05-19T22:50:20.092Z,42.90
2019-05-19T22:52:48.582Z,41.90
2019-05-19T22:55:20.829Z,44.67
2019-05-19T22:57:51.899Z,42.20
2019-05-19T23:00:24.753Z,46.98
2019-05-19T23:02:55.728Z,40.23
2019-05-19T23:05:24.344Z,39.55
2019-05-19T23:07:54.437Z,37.45
2019-05-19T23:10:23.023Z,39.85
2019-05-19T23:12:53.021Z,40.73
2019-05-19T23:15:21.836Z,36.80
2019-05-19T23:17:51.877Z,41.40
2019-05-19T23:20:20.756Z,38.05
2019-05-19T23:22:49.378Z,37.45
2019-05-19T23:25:21.520Z,38.05
2019-05-19T23:27:51.467Z,36.75
2019-05-19T23:30:20.423Z,35.23
2019-05-19T23:32:50.316Z,37.53
2019-05-19T23:35:20.085Z,36.20
2019-05-19T23:37:48.658Z,38.85
2019-05-19T23:40:17.305Z,46.63
2019-05-19T23:42:49.055Z,47.27
2019-05-19T23:45:17.857Z,46.53
2019-05-19T23:47:46.364Z,49.63
2019-05-19T23:50:15.112Z,47.30
2019-05-19T23:52:43.688Z,50.67
2019-05-19T23:55:13.927Z,51.88
2019-05-19T23:57:42.479Z,48.30
